Time;durP1;ratioP1;P1;durP2;ratioP2;P2;SDS_P1;SDS_P2;PMS_P1;PMS_P2;Temp;Humidity;BMP_temperature;BMP_pressure;BME280_temperature;BME280_humidity;BME280_pressure;Samples;Min_cycle;Max_cycle;Signal;HPM_P1;HPM_P2
2021/12/01 00:01:29;;;;;;;17.10;16.60;;;6.10;99.90;;;;;;4934843;29;20464;-78
2021/12/01 00:03:55;;;;;;;18.10;17.50;;;6.00;99.90;;;;;;4934268;29;20737;-80
2021/12/01 00:06:22;;;;;;;17.97;17.20;;;6.00;99.90;;;;;;4934554;29;20455;-79
2021/12/01 00:08:50;;;;;;;17.63;17.03;;;6.10;99.90;;;;;;4934873;29;20505;-80
2021/12/01 00:11:17;;;;;;;17.93;17.33;;;6.00;99.90;;;;;;4934474;29;20948;-81
2021/12/01 00:13:44;;;;;;;18.23;17.63;;;6.00;99.90;;;;;;4934361;29;20460;-80
2021/12/01 00:16:10;;;;;;;18.40;17.80;;;6.00;99.90;;;;;;4934379;29;20457;-82
2021/12/01 00:18:37;;;;;;;21.17;20.37;;;6.00;99.90;;;;;;4934215;29;20450;-86
2021/12/01 00:21:04;;;;;;;21.60;20.80;;;5.90;99.90;;;;;;4934251;29;20965;-81
2021/12/01 00:23:31;;;;;;;22.70;21.80;;;5.90;99.90;;;;;;4934660;29;20449;-79
2021/12/01 00:25:59;;;;;;;23.10;22.30;;;5.90;99.90;;;;;;4934061;29;20458;-78
2021/12/01 00:28:26;;;;;;;23.00;22.20;;;5.90;99.90;;;;;;4934194;29;20462;-84
2021/12/01 00:30:53;;;;;;;22.97;22.17;;;5.90;99.90;;;;;;4934072;29;20501;-79
2021/12/01 00:33:22;;;;;;;22.87;22.07;;;5.80;99.90;;;;;;4934228;29;20451;-82
2021/12/01 00:35:51;;;;;;;23.07;22.27;;;5.80;99.90;;;;;;4934293;29;20818;-80
2021/12/01 00:38:18;;;;;;;23.10;22.30;;;5.80;99.90;;;;;;4936537;29;20457;-83
2021/12/01 00:40:45;;;;;;;23.20;22.40;;;5.80;99.90;;;;;;4934108;29;20448;-81
2021/12/01 00:43:17;;;;;;;23.87;22.87;;;5.70;99.90;;;;;;4934183;29;20453;-78
2021/12/01 00:45:49;;;;;;;23.20;22.40;;;5.70;99.90;;;;;;4933787;29;20486;-78
2021/12/01 00:48:17;;;;;;;22.50;21.70;;;5.70;99.90;;;;;;4933948;29;20458;-80
2021/12/01 00:50:44;;;;;;;22.40;21.60;;;5.80;99.90;;;;;;4933746;29;20489;-80
2021/12/01 00:53:11;;;;;;;21.40;20.60;;;5.70;99.90;;;;;;4933712;29;20468;-78
2021/12/01 00:55:39;;;;;;;21.63;20.93;;;5.70;99.90;;;;;;4933678;29;20874;-77
2021/12/01 00:58:06;;;;;;;23.27;22.47;;;5.70;99.90;;;;;;4933536;29;20867;-77
2021/12/01 01:00:35;;;;;;;23.37;22.57;;;5.70;99.90;;;;;;4933887;29;20860;-75
2021/12/01 01:03:02;;;;;;;24.20;23.30;;;5.70;99.90;;;;;;4933723;29;20469;-77
2021/12/01 01:05:29;;;;;;;23.57;22.67;;;5.70;99.90;;;;;;4933681;29;20480;-78
2021/12/01 01:07:56;;;;;;;23.50;22.70;;;5.70;99.90;;;;;;4933185;29;20456;-79
2021/12/01 01:10:34;;;;;;;22.10;21.30;;;5.70;99.90;;;;;;4933399;29;20490;-85
2021/12/01 01:18:36;;;;;;;21.07;20.30;;;5.80;99.90;;;;;;4933784;29;20805;-79
2021/12/01 01:21:03;;;;;;;20.70;19.90;;;5.80;99.90;;;;;;4933911;29;20454;-80
2021/12/01 01:23:30;;;;;;;20.40;19.60;;;5.80;99.90;;;;;;4933436;29;20481;-81
2021/12/01 01:25:58;;;;;;;21.63;20.93;;;5.80;99.90;;;;;;4933426;29;20455;-79
2021/12/01 01:28:24;;;;;;;21.90;21.10;;;5.90;99.90;;;;;;4933677;29;20487;-82
2021/12/01 01:30:53;;;;;;;22.80;22.00;;;5.90;99.90;;;;;;4933915;29;21011;-84
2021/12/01 01:33:21;;;;;;;21.93;21.13;;;6.00;99.90;;;;;;4933800;29;20464;-86
2021/12/01 01:35:48;;;;;;;21.37;20.67;;;6.00;99.90;;;;;;4939150;29;20479;-90
2021/12/01 01:38:15;;;;;;;21.70;20.90;;;6.00;99.90;;;;;;4945497;29;20501;-88
2021/12/01 01:40:44;;;;;;;20.87;20.17;;;6.00;99.90;;;;;;4937111;29;21013;-89
2021/12/01 01:43:11;;;;;;;21.17;20.40;;;6.00;99.90;;;;;;4937136;29;20851;-88
2021/12/01 01:45:38;;;;;;;20.50;19.80;;;6.00;99.90;;;;;;4934161;29;20461;-86
2021/12/01 01:48:10;;;;;;;19.97;19.20;;;6.00;99.90;;;;;;4933849;29;20452;-86
2021/12/01 01:50:40;;;;;;;19.47;18.77;;;6.00;99.90;;;;;;4933893;29;20487;-85
2021/12/01 01:53:09;;;;;;;18.40;17.70;;;6.00;99.90;;;;;;4933366;29;20522;-84
2021/12/01 01:55:39;;;;;;;18.00;17.20;;;6.00;99.90;;;;;;4933221;29;20501;-82
2021/12/01 01:58:06;;;;;;;17.43;16.83;;;6.10;99.90;;;;;;4933113;29;20539;-81
2021/12/01 02:00:35;;;;;;;16.67;16.17;;;6.10;99.90;;;;;;4933445;29;20451;-81
2021/12/01 02:03:02;;;;;;;17.00;16.30;;;6.00;99.90;;;;;;4933264;29;20505;-79
2021/12/01 02:05:31;;;;;;;16.00;15.50;;;6.00;99.90;;;;;;4933345;29;20554;-78
2021/12/01 02:07:57;;;;;;;15.70;15.20;;;6.00;99.90;;;;;;4932775;29;20554;-78
2021/12/01 02:10:24;;;;;;;15.90;15.20;;;6.00;99.90;;;;;;4933108;29;20515;-77
2021/12/01 02:12:51;;;;;;;15.20;14.70;;;6.00;99.90;;;;;;4933173;29;20463;-77
2021/12/01 02:15:18;;;;;;;15.20;14.70;;;6.10;99.90;;;;;;4933089;29;20463;-75
2021/12/01 02:17:44;;;;;;;14.47;13.80;;;6.10;99.90;;;;;;4933009;29;20463;-76
2021/12/01 02:20:22;;;;;;;13.70;13.20;;;6.10;99.90;;;;;;4936041;29;20504;-77
2021/12/01 02:22:49;;;;;;;13.83;13.43;;;6.20;99.90;;;;;;4936566;29;20474;-77
2021/12/01 02:25:16;;;;;;;14.20;13.70;;;6.30;99.90;;;;;;4936541;29;20461;-77
2021/12/01 02:27:43;;;;;;;13.70;13.20;;;6.30;99.90;;;;;;4936042;29;20456;-76
2021/12/01 02:30:10;;;;;;;13.90;13.30;;;6.30;99.90;;;;;;4936107;29;20490;-80
2021/12/01 02:32:37;;;;;;;13.10;12.50;;;6.30;99.90;;;;;;4936331;29;20460;-78
2021/12/01 02:35:04;;;;;;;12.90;12.50;;;6.40;99.90;;;;;;4936417;29;21031;-77
2021/12/01 02:37:32;;;;;;;13.10;12.60;;;6.40;99.90;;;;;;4936243;29;20469;-77
2021/12/01 02:39:59;;;;;;;12.43;12.00;;;6.40;99.90;;;;;;4936275;29;20453;-75
2021/12/01 02:42:26;;;;;;;12.30;11.90;;;6.40;99.90;;;;;;4935890;29;20456;-75
2021/12/01 02:44:52;;;;;;;12.43;12.03;;;6.50;99.90;;;;;;4936083;29;20855;-75
2021/12/01 02:47:19;;;;;;;12.20;11.80;;;6.50;99.90;;;;;;4936159;29;20453;-76
2021/12/01 02:49:46;;;;;;;12.20;11.70;;;6.50;99.90;;;;;;4935792;29;20466;-75
2021/12/01 02:52:15;;;;;;;11.63;11.23;;;6.50;99.90;;;;;;4935689;29;20456;-76
2021/12/01 02:54:43;;;;;;;12.37;11.97;;;6.50;99.90;;;;;;4935816;29;20529;-77
2021/12/01 02:57:10;;;;;;;11.33;10.93;;;6.50;99.90;;;;;;4935380;29;20834;-75
2021/12/01 02:59:38;;;;;;;12.10;11.67;;;6.50;99.90;;;;;;4935681;29;20934;-75
2021/12/01 03:02:05;;;;;;;12.00;11.60;;;6.60;99.90;;;;;;4935721;29;20478;-77
2021/12/01 03:04:33;;;;;;;12.20;11.70;;;6.60;99.90;;;;;;4935694;29;20482;-76
2021/12/01 03:07:00;;;;;;;12.40;11.90;;;6.60;99.90;;;;;;4935539;29;20454;-76
2021/12/01 03:09:27;;;;;;;12.07;11.57;;;6.60;99.90;;;;;;4935412;29;20459;-78
2021/12/01 03:11:56;;;;;;;11.60;11.20;;;6.60;99.90;;;;;;4935500;29;20836;-76
2021/12/01 03:14:23;;;;;;;12.20;11.60;;;6.60;99.90;;;;;;4935543;29;20453;-76
2021/12/01 03:16:52;;;;;;;11.80;11.40;;;6.60;99.90;;;;;;4935469;29;20456;-78
2021/12/01 03:19:19;;;;;;;11.60;11.20;;;6.60;99.90;;;;;;4935658;29;20453;-76
2021/12/01 03:21:46;;;;;;;11.67;11.27;;;6.60;99.90;;;;;;4935427;29;20845;-75
2021/12/01 03:24:13;;;;;;;12.37;11.87;;;6.70;99.90;;;;;;4935370;29;20463;-75
2021/12/01 03:26:40;;;;;;;11.90;11.47;;;6.70;99.90;;;;;;4935277;29;20449;-74
2021/12/01 03:29:11;;;;;;;11.40;11.00;;;6.70;99.90;;;;;;4934681;29;20457;-74
2021/12/01 03:31:38;;;;;;;11.27;10.90;;;6.70;99.90;;;;;;4935051;29;20555;-74
2021/12/01 03:34:05;;;;;;;11.33;10.93;;;6.80;99.90;;;;;;4935210;29;20459;-74
2021/12/01 03:36:32;;;;;;;11.43;11.00;;;6.80;99.90;;;;;;4935330;29;20455;-75
2021/12/01 03:38:59;;;;;;;11.47;11.07;;;6.80;99.90;;;;;;4934782;29;20457;-74
2021/12/01 03:41:26;;;;;;;11.40;11.00;;;6.80;99.90;;;;;;4935141;29;20896;-75
2021/12/01 03:43:52;;;;;;;10.77;10.40;;;6.80;99.90;;;;;;4934880;29;20539;-76
2021/12/01 03:46:21;;;;;;;11.20;10.80;;;6.80;99.90;;;;;;4934889;29;20510;-75
2021/12/01 03:48:48;;;;;;;10.70;10.40;;;6.80;99.90;;;;;;4934717;29;20456;-74
2021/12/01 03:51:15;;;;;;;11.90;11.50;;;6.80;99.90;;;;;;4934739;29;20496;-75
2021/12/01 03:53:42;;;;;;;11.60;11.20;;;6.90;99.90;;;;;;4934685;29;20449;-74
2021/12/01 03:56:08;;;;;;;11.50;11.10;;;6.90;99.90;;;;;;4934968;29;20461;-74
2021/12/01 03:58:35;;;;;;;11.63;11.13;;;7.00;99.90;;;;;;4934429;29;20946;-74
2021/12/01 04:01:02;;;;;;;12.00;11.50;;;7.00;99.90;;;;;;4934860;29;20475;-74
2021/12/01 04:03:30;;;;;;;11.30;10.90;;;7.00;99.90;;;;;;4934392;29;20854;-74
2021/12/01 04:05:56;;;;;;;11.30;10.90;;;7.00;99.90;;;;;;4934310;29;20536;-74
2021/12/01 04:08:23;;;;;;;11.33;10.93;;;7.00;99.90;;;;;;4934639;29;20452;-74
2021/12/01 04:10:50;;;;;;;10.87;10.57;;;7.00;99.90;;;;;;4934532;29;20495;-75
2021/12/01 04:13:16;;;;;;;11.10;10.70;;;7.00;99.90;;;;;;4934308;29;20864;-75
2021/12/01 04:15:43;;;;;;;11.10;10.60;;;7.00;99.90;;;;;;4934287;29;20461;-74
2021/12/01 04:18:10;;;;;;;11.87;11.00;;;7.00;99.90;;;;;;4934300;29;20464;-74
2021/12/01 04:20:38;;;;;;;11.90;11.40;;;7.00;99.90;;;;;;4934318;29;20458;-74
2021/12/01 04:23:05;;;;;;;11.83;11.43;;;7.00;99.90;;;;;;4950145;29;20451;-74
2021/12/01 04:25:32;;;;;;;10.90;10.50;;;7.00;99.90;;;;;;4953031;29;20459;-74
2021/12/01 04:27:59;;;;;;;11.40;11.00;;;7.00;99.90;;;;;;4952750;29;20531;-75
2021/12/01 04:30:26;;;;;;;12.33;11.83;;;7.00;99.90;;;;;;4952989;29;20518;-74
2021/12/01 04:32:54;;;;;;;12.10;11.50;;;7.00;99.90;;;;;;4953096;29;20999;-77
2021/12/01 04:35:24;;;;;;;11.80;11.30;;;7.10;99.90;;;;;;4953470;29;20460;-76
2021/12/01 04:37:52;;;;;;;12.43;11.73;;;7.10;99.90;;;;;;4953165;29;20457;-73
2021/12/01 04:40:19;;;;;;;12.50;12.00;;;7.10;99.90;;;;;;4952742;28;20470;-74
2021/12/01 04:42:46;;;;;;;13.40;12.50;;;7.10;99.90;;;;;;4951840;29;20452;-74
2021/12/01 04:45:15;;;;;;;12.07;11.67;;;7.10;99.90;;;;;;4952488;29;20451;-74
2021/12/01 04:47:43;;;;;;;11.97;11.57;;;7.10;99.90;;;;;;4952602;29;20502;-74
2021/12/01 04:50:11;;;;;;;11.87;11.47;;;7.10;99.90;;;;;;4952743;28;20826;-74
2021/12/01 04:52:38;;;;;;;11.20;10.70;;;7.10;99.90;;;;;;4952760;28;20466;-73
2021/12/01 04:55:08;;;;;;;11.70;11.20;;;7.10;99.90;;;;;;4953150;29;20456;-73
2021/12/01 04:57:34;;;;;;;11.63;11.10;;;7.10;99.90;;;;;;4952897;28;20510;-74
2021/12/01 05:00:02;;;;;;;11.70;11.20;;;7.10;99.90;;;;;;4952682;29;20467;-75
2021/12/01 05:02:28;;;;;;;11.23;10.70;;;7.10;99.90;;;;;;4952745;28;20475;-74
2021/12/01 05:04:55;;;;;;;11.53;10.70;;;7.10;99.90;;;;;;4952485;29;20488;-75
2021/12/01 05:07:23;;;;;;;11.93;11.43;;;7.10;99.90;;;;;;4952618;29;21252;-74
2021/12/01 05:09:50;;;;;;;11.10;10.60;;;7.20;99.90;;;;;;4952849;28;20511;-74
2021/12/01 05:12:18;;;;;;;10.90;10.50;;;7.20;99.90;;;;;;4952715;28;21011;-76
2021/12/01 05:14:45;;;;;;;10.40;9.90;;;7.20;99.90;;;;;;4952475;29;20452;-75
2021/12/01 05:17:11;;;;;;;10.60;10.20;;;7.30;99.90;;;;;;4950679;29;20464;-76
2021/12/01 05:19:38;;;;;;;10.60;10.20;;;7.30;99.90;;;;;;4951575;28;20855;-74
2021/12/01 05:22:06;;;;;;;10.00;9.70;;;7.30;99.90;;;;;;4950526;29;20485;-75
2021/12/01 05:24:33;;;;;;;10.80;10.40;;;7.30;99.90;;;;;;4950984;29;20552;-75
2021/12/01 05:27:00;;;;;;;10.77;10.37;;;7.40;99.90;;;;;;4943039;28;20479;-75
